Time;durP1;ratioP1;P1;durP2;ratioP2;P2;SDS_P1;SDS_P2;PMS_P1;PMS_P2;Temp;Humidity;BMP_temperature;BMP_pressure;BME280_temperature;BME280_humidity;BME280_pressure;Samples;Min_cycle;Max_cycle;Signal;HPM_P1;HPM_P2
2021/03/02 00:00:19;;;;;;;8.95;4.88;;;;;;;;;;5065842;28;20024;-82
2021/03/02 00:02:45;;;;;;;13.38;5.03;;;;;;;;;;5069550;28;20025;-83
2021/03/02 00:05:13;;;;;;;17.27;4.35;;;7.20;44.80;;;;;;5064304;28;20481;-81
2021/03/02 00:07:39;;;;;;;5.60;4.15;;;;;;;;;;5064493;28;20033;-82
2021/03/02 00:10:07;;;;;;;10.32;4.38;;;7.10;45.10;;;;;;5040373;28;20028;-82
2021/03/02 00:12:35;;;;;;;6.50;4.22;;;7.00;45.00;;;;;;5067391;28;20028;-82
2021/03/02 00:15:02;;;;;;;21.05;6.97;;;;;;;;;;5064917;28;20028;-82
2021/03/02 00:17:42;;;;;;;5.03;3.10;;;7.00;45.10;;;;;;5068060;28;20075;-82
2021/03/02 00:20:10;;;;;;;9.13;4.40;;;7.20;44.80;;;;;;5042110;28;20025;-83
2021/03/02 00:22:59;;;;;;;11.60;5.70;;;7.10;45.20;;;;;;5062705;28;20033;-82
2021/03/02 00:25:31;;;;;;;13.43;4.63;;;6.90;45.30;;;;;;5064266;28;20086;-82
2021/03/02 00:27:59;;;;;;;16.35;6.18;;;6.90;45.10;;;;;;5066601;28;20497;-82
2021/03/02 00:30:25;;;;;;;7.68;3.85;;;;;;;;;;5062195;28;20064;-83
2021/03/02 00:32:51;;;;;;;13.40;4.35;;;;;;;;;;5069073;28;20615;-82
2021/03/02 00:35:17;;;;;;;9.27;4.65;;;1.90;42.80;;;;;;5046335;28;20024;-82
2021/03/02 00:37:48;;;;;;;6.10;3.13;;;6.90;50.20;;;;;;5062979;28;20048;-82
2021/03/02 00:40:15;;;;;;;12.02;4.22;;;6.40;46.30;;;;;;5065960;28;20021;-82
2021/03/02 00:42:41;;;;;;;15.18;4.03;;;;;;;;;;5064246;28;20515;-81
2021/03/02 00:45:07;;;;;;;9.57;4.45;;;6.80;60.00;;;;;;5063946;28;20025;-82
2021/03/02 00:47:33;;;;;;;14.98;6.82;;;;;;;;;;5066888;28;20028;-82
2021/03/02 00:49:59;;;;;;;11.32;4.80;;;;;;;;;;5066045;28;20051;-82
2021/03/02 00:52:25;;;;;;;21.33;4.53;;;;;;;;;;5066343;28;20025;-83
2021/03/02 00:54:51;;;;;;;13.30;3.75;;;;;;;;;;5064331;28;20397;-82
2021/03/02 00:57:17;;;;;;;4.47;2.97;;;;;;;;;;5047490;28;20123;-82
2021/03/02 00:59:43;;;;;;;4.78;2.90;;;;;;;;;;5063624;28;20037;-82
2021/03/02 01:02:10;;;;;;;11.52;3.00;;;;;;;;;;5065428;28;20068;-83
2021/03/02 01:04:36;;;;;;;8.80;3.10;;;;;;;;;;5064875;28;20037;-82
2021/03/02 01:07:02;;;;;;;9.45;2.67;;;;;;;;;;5065315;28;20020;-82
2021/03/02 01:09:28;;;;;;;7.95;3.30;;;;;;;;;;5066723;28;20112;-82
2021/03/02 01:11:54;;;;;;;8.65;4.05;;;;;;;;;;5066150;28;20560;-82
2021/03/02 01:14:20;;;;;;;11.50;4.30;;;;;;;;;;5064678;28;20066;-82
2021/03/02 01:16:46;;;;;;;8.93;4.00;;;;;;;;;;5065171;28;20509;-82
2021/03/02 01:19:12;;;;;;;7.13;4.82;;;;;;;;;;5066932;28;20028;-83
2021/03/02 01:21:38;;;;;;;7.40;3.28;;;;;;;;;;5064984;28;20032;-81
2021/03/02 01:24:05;;;;;;;9.45;3.15;;;;;;;;;;5065262;28;20047;-83
2021/03/02 01:26:31;;;;;;;7.10;3.08;;;;;;;;;;5065420;28;20032;-83
2021/03/02 01:28:57;;;;;;;10.02;4.50;;;;;;;;;;5062654;28;20032;-83
2021/03/02 01:31:24;;;;;;;11.13;4.80;;;;;;;;;;5066353;28;20032;-83
2021/03/02 01:33:50;;;;;;;9.90;4.68;;;;;;;;;;5047065;28;20120;-83
2021/03/02 01:36:16;;;;;;;6.85;3.78;;;;;;;;;;5046001;28;20136;-83
2021/03/02 01:38:42;;;;;;;16.58;5.03;;;;;;;;;;5067027;28;20043;-82
2021/03/02 01:41:08;;;;;;;34.35;4.78;;;;;;;;;;5065668;28;20062;-83
2021/03/02 01:43:34;;;;;;;7.60;4.40;;;;;;;;;;5064181;28;20029;-82
2021/03/02 01:46:00;;;;;;;19.15;4.20;;;;;;;;;;5064599;28;20029;-82
2021/03/02 01:48:26;;;;;;;10.10;4.35;;;;;;;;;;5067720;28;20021;-81
2021/03/02 01:50:52;;;;;;;7.45;3.95;;;;;;;;;;5052284;28;20114;-83
2021/03/02 01:53:18;;;;;;;7.82;5.05;;;;;;;;;;5068138;28;20028;-81
2021/03/02 01:55:45;;;;;;;20.55;4.20;;;;;;;;;;5068253;28;20028;-82
2021/03/02 01:58:11;;;;;;;6.13;3.60;;;;;;;;;;5067773;28;20093;-81
2021/03/02 02:00:38;;;;;;;10.20;4.70;;;;;;;;;;5068614;28;20028;-82
2021/03/02 02:03:21;;;;;;;9.40;3.15;;;6.20;46.30;;;;;;5069356;28;20611;-84
2021/03/02 02:05:53;;;;;;;11.90;4.32;;;6.00;46.80;;;;;;5068904;28;20151;-82
2021/03/02 02:08:27;;;;;;;7.35;2.83;;;5.90;46.70;;;;;;5068875;28;20083;-83
2021/03/02 02:10:58;;;;;;;5.38;2.50;;;;;;;;;;5053810;28;20033;-82
2021/03/02 02:13:32;;;;;;;7.47;2.67;;;5.90;46.20;;;;;;5048399;28;20032;-82
2021/03/02 02:16:03;;;;;;;13.82;4.00;;;5.80;46.70;;;;;;5067467;28;20493;-83
2021/03/02 02:18:33;;;;;;;22.42;6.80;;;;;;;;;;5068528;28;20051;-83
2021/03/02 02:21:05;;;;;;;29.88;5.75;;;;;;;;;;5066799;28;20085;-83
2021/03/02 02:24:00;;;;;;;17.48;5.45;;;6.10;45.10;;;;;;5068841;28;20064;-83
2021/03/02 02:26:58;;;;;;;16.63;6.95;;;5.70;45.70;;;;;;5068488;28;20098;-81
2021/03/02 02:29:42;;;;;;;13.35;4.57;;;5.60;46.90;;;;;;5069397;28;20024;-83
2021/03/02 02:32:09;;;;;;;9.95;3.47;;;5.30;46.00;;;;;;5047085;28;20992;-83
2021/03/02 02:34:38;;;;;;;7.05;4.25;;;6.00;67.50;;;;;;5062918;28;20030;-82
2021/03/02 02:37:05;;;;;;;5.85;3.72;;;;;;;;;;5063997;28;20041;-82
2021/03/02 02:39:33;;;;;;;11.98;4.43;;;5.70;46.90;;;;;;5068577;28;20020;-82
2021/03/02 02:42:01;;;;;;;9.63;3.58;;;5.50;46.40;;;;;;5046872;28;20041;-82
2021/03/02 02:44:27;;;;;;;10.35;3.83;;;;;;;;;;5049915;28;20504;-82
2021/03/02 02:46:54;;;;;;;7.85;4.68;;;;;;;;;;5068489;28;20115;-82
2021/03/02 02:49:20;;;;;;;11.68;4.93;;;;;;;;;;5068365;28;20045;-81
2021/03/02 02:51:46;;;;;;;25.05;4.65;;;;;;;;;;5049477;28;20021;-81
2021/03/02 02:54:13;;;;;;;13.57;3.85;;;5.50;47.60;;;;;;5066293;28;20032;-83
2021/03/02 02:56:44;;;;;;;6.50;3.42;;;5.60;47.30;;;;;;5051639;28;20114;-82
2021/03/02 02:59:27;;;;;;;8.90;3.22;;;5.40;47.10;;;;;;5046069;28;20641;-82
2021/03/02 03:02:00;;;;;;;5.35;3.05;;;5.50;45.80;;;;;;5068416;28;20048;-82
2021/03/02 03:04:31;;;;;;;4.82;2.28;;;5.50;45.80;;;;;;5066676;28;20395;-83
2021/03/02 03:06:59;;;;;;;7.78;4.85;;;5.40;46.50;;;;;;5067716;28;20066;-83
2021/03/02 03:09:26;;;;;;;11.40;4.95;;;;;;;;;;5048411;28;20031;-83
2021/03/02 03:12:06;;;;;;;17.48;5.55;;;5.40;46.60;;;;;;5049857;28;20024;-82
2021/03/02 03:14:41;;;;;;;9.65;4.88;;;5.20;46.00;;;;;;5067393;28;20055;-81
2021/03/02 03:17:10;;;;;;;10.07;3.85;;;5.20;46.70;;;;;;5067346;28;20041;-82
2021/03/02 03:19:37;;;;;;;9.27;4.97;;;;;;;;;;5045869;28;20025;-82
2021/03/02 03:22:03;;;;;;;6.82;3.38;;;;;;;;;;5067163;28;20043;-81
2021/03/02 03:24:29;;;;;;;13.65;3.13;;;;;;;;;;5048051;28;20059;-82
2021/03/02 03:26:57;;;;;;;6.72;2.75;;;5.20;46.80;;;;;;5068404;28;20439;-82
2021/03/02 03:29:23;;;;;;;4.28;2.58;;;;;;;;;;5046332;28;20033;-82
2021/03/02 03:31:49;;;;;;;9.43;3.33;;;;;;;;;;5066874;28;20033;-83
2021/03/02 03:34:16;;;;;;;4.72;2.35;;;5.20;46.20;;;;;;5065964;28;20115;-82
2021/03/02 03:36:43;;;;;;;5.43;3.17;;;;;;;;;;5048310;28;20028;-81
2021/03/02 03:39:09;;;;;;;5.90;2.47;;;;;;;;;;5069596;28;20043;-82
2021/03/02 03:41:35;;;;;;;4.40;3.53;;;;;;;;;;5065984;28;20029;-82
2021/03/02 03:44:01;;;;;;;10.85;3.25;;;;;;;;;;5066664;28;20032;-82
2021/03/02 03:46:27;;;;;;;17.65;6.07;;;;;;;;;;5047109;28;20020;-82
2021/03/02 03:48:54;;;;;;;23.23;6.30;;;;;;;;;;5068426;28;20075;-82
2021/03/02 03:51:24;;;;;;;11.25;5.60;;;5.40;45.80;;;;;;5063849;28;20020;-81
2021/03/02 03:53:51;;;;;;;31.13;5.07;;;;;;;;;;5067908;28;20020;-82
2021/03/02 03:56:17;;;;;;;19.58;5.28;;;;;;;;;;5047222;28;20077;-82
2021/03/02 03:58:43;;;;;;;15.60;3.75;;;;;;;;;;5067950;28;20064;-82
2021/03/02 04:01:10;;;;;;;5.90;3.03;;;4.90;47.20;;;;;;5066704;28;20167;-82
2021/03/02 04:03:36;;;;;;;15.87;4.80;;;;;;;;;;5065693;28;20024;-82
2021/03/02 04:06:03;;;;;;;5.15;3.95;;;;;;;;;;5066172;28;20028;-82
2021/03/02 04:08:30;;;;;;;8.27;3.40;;;;;;;;;;5068246;28;20016;-81
2021/03/02 04:10:56;;;;;;;10.65;3.22;;;;;;;;;;5062871;28;20119;-82
2021/03/02 04:13:22;;;;;;;6.80;3.15;;;;;;;;;;5044721;28;20519;-82
2021/03/02 04:15:48;;;;;;;5.80;3.08;;;;;;;;;;5065610;28;20039;-81
2021/03/02 04:18:16;;;;;;;6.82;2.63;;;5.00;47.50;;;;;;5066705;28;20538;-82
2021/03/02 04:20:43;;;;;;;15.00;4.25;;;4.90;48.10;;;;;;5045823;28;20546;-81
2021/03/02 04:23:09;;;;;;;5.95;2.95;;;;;;;;;;5065534;28;20039;-82
2021/03/02 04:25:35;;;;;;;6.97;3.33;;;;;;;;;;5065195;28;20097;-81
2021/03/02 04:28:03;;;;;;;5.55;3.55;;;4.70;46.70;;;;;;5066168;28;20055;-82
2021/03/02 04:30:29;;;;;;;14.75;6.13;;;;;;;;;;5065563;28;20025;-82
2021/03/02 04:32:55;;;;;;;9.60;3.55;;;;;;;;;;5045949;28;20033;-83
2021/03/02 04:35:21;;;;;;;17.85;4.38;;;;;;;;;;5064531;28;20039;-82
2021/03/02 04:37:47;;;;;;;12.63;3.33;;;;;;;;;;5064033;28;20523;-82
2021/03/02 04:40:13;;;;;;;6.32;3.92;;;;;;;;;;5064124;28;20051;-81
2021/03/02 04:42:40;;;;;;;5.53;3.70;;;;;;;;;;5064119;28;20452;-82
2021/03/02 04:45:08;;;;;;;10.13;2.60;;;;;;;;;;5044281;28;20022;-81
2021/03/02 04:47:35;;;;;;;7.30;3.30;;;;;;;;;;5070142;28;20475;-82
2021/03/02 04:50:01;;;;;;;10.07;4.38;;;;;;;;;;5046992;28;20519;-82
2021/03/02 04:52:27;;;;;;;5.97;2.72;;;;;;;;;;5066775;28;20370;-83
2021/03/02 04:54:53;;;;;;;12.05;5.65;;;;;;;;;;5063886;28;20548;-82
2021/03/02 04:57:19;;;;;;;3.80;2.28;;;;;;;;;;5065362;28;20691;-82
2021/03/02 04:59:45;;;;;;;4.55;2.38;;;;;;;;;;5067240;28;20029;-83
2021/03/02 05:02:11;;;;;;;10.35;3.88;;;;;;;;;;5062042;28;20028;-82
2021/03/02 05:04:37;;;;;;;14.00;6.22;;;;;;;;;;5064499;28;20498;-82
2021/03/02 05:07:03;;;;;;;19.42;5.43;;;;;;;;;;5065491;28;20029;-82
2021/03/02 05:09:29;;;;;;;18.88;5.63;;;;;;;;;;5066218;28;20045;-82
2021/03/02 05:11:55;;;;;;;11.65;4.18;;;;;;;;;;5063109;28;20927;-83
2021/03/02 05:14:21;;;;;;;6.82;4.43;;;;;;;;;;5063928;28;20029;-82
2021/03/02 05:16:47;;;;;;;9.02;3.92;;;;;;;;;;5065161;28;20032;-82
2021/03/02 05:19:13;;;;;;;6.40;4.43;;;;;;;;;;5066157;28;20119;-82
2021/03/02 05:21:39;;;;;;;11.70;3.53;;;;;;;;;;5065293;28;20047;-82
2021/03/02 05:24:06;;;;;;;12.30;4.28;;;;;;;;;;5064912;28;20457;-82
2021/03/02 05:26:31;;;;;;;18.42;4.78;;;;;;;;;;5065996;28;20024;-82
2021/03/02 05:28:57;;;;;;;8.43;3.95;;;;;;;;;;5065923;28;20029;-82
2021/03/02 05:31:24;;;;;;;11.70;3.92;;;;;;;;;;5063145;28;20078;-82
2021/03/02 05:33:50;;;;;;;2.85;2.22;;;;;;;;;;5063412;28;20035;-82
2021/03/02 05:36:16;;;;;;;6.55;2.58;;;;;;;;;;5064324;28;20033;-83
2021/03/02 05:38:42;;;;;;;5.88;3.08;;;;;;;;;;5067119;28;20107;-82
2021/03/02 05:41:09;;;;;;;5.93;3.55;;;;;;;;;;5043805;28;20120;-82
2021/03/02 05:43:36;;;;;;;8.77;3.70;;;;;;;;;;5062663;28;20024;-83
2021/03/02 05:46:02;;;;;;;10.82;4.00;;;4.70;47.60;;;;;;5063732;28;20275;-81
2021/03/02 05:48:29;;;;;;;8.27;4.37;;;4.70;47.90;;;;;;5042627;28;20035;-82
2021/03/02 05:50:55;;;;;;;6.03;2.90;;;;;;;;;;5066816;28;20271;-83
2021/03/02 05:53:22;;;;;;;6.30;3.00;;;;;;;;;;5065655;28;20470;-82
2021/03/02 05:55:48;;;;;;;6.68;4.05;;;4.60;47.70;;;;;;5063841;28;20024;-82
2021/03/02 05:58:15;;;;;;;10.73;4.07;;;4.60;47.70;;;;;;5065012;28;20040;-82
2021/03/02 06:00:41;;;;;;;4.87;2.37;;;;;;;;;;5065400;28;20354;-83
2021/03/02 06:03:08;;;;;;;3.75;2.58;;;;;;;;;;5062139;28;20271;-83
2021/03/02 06:05:35;;;;;;;4.50;2.78;;;;;;;;;;5057537;28;20040;-82
2021/03/02 06:08:02;;;;;;;9.27;3.40;;;;;;;;;;5061377;28;20449;-82
2021/03/02 06:10:29;;;;;;;5.47;3.20;;;;;;;;;;5058582;28;20040;-82
2021/03/02 06:12:57;;;;;;;7.95;4.15;;;4.70;47.40;;;;;;5064202;28;20021;-82
2021/03/02 06:15:24;;;;;;;4.85;2.50;;;;;;;;;;5057791;28;20042;-81
2021/03/02 06:18:09;;;;;;;7.05;3.88;;;4.60;47.20;;;;;;5056630;28;20025;-82
2021/03/02 06:20:35;;;;;;;14.98;3.33;;;;;;;;;;5040962;28;20429;-82
2021/03/02 06:23:22;;;;;;;12.38;4.85;;;4.30;47.40;;;;;;5057167;28;20025;-83
2021/03/02 06:25:48;;;;;;;19.23;9.40;;;;;;;;;;5052929;28;20109;-82
2021/03/02 06:28:14;;;;;;;13.57;7.95;;;;;;;;;;5042578;28;20032;-82
2021/03/02 06:30:40;;;;;;;25.10;9.38;;;;;;;;;;5056723;28;20040;-81
2021/03/02 06:33:16;;;;;;;16.20;8.02;;;;;;;;;;5062023;28;20021;-83
2021/03/02 06:35:44;;;;;;;18.50;7.07;;;;;;;;;;5059299;28;20032;-82
2021/03/02 06:38:10;;;;;;;26.23;7.03;;;;;;;;;;5065381;28;20119;-86
2021/03/02 06:40:46;;;;;;;9.98;5.15;;;4.60;47.10;;;;;;5059900;28;20083;-84
2021/03/02 06:43:28;;;;;;;20.50;4.97;;;4.60;47.00;;;;;;5065473;28;20032;-86
2021/03/02 06:45:55;;;;;;;16.50;4.35;;;;;;;;;;5049073;28;20279;-84
2021/03/02 06:48:21;;;;;;;20.20;6.53;;;;;;;;;;5065505;28;20037;-85
2021/03/02 06:50:47;;;;;;;12.00;5.40;;;;;;;;;;5070200;28;20094;-85
2021/03/02 06:53:13;;;;;;;9.20;4.95;;;;;;;;;;5062735;28;20020;-84
2021/03/02 06:55:40;;;;;;;6.65;3.47;;;4.80;48.00;;;;;;5068018;28;20033;-85
2021/03/02 06:58:23;;;;;;;13.40;5.90;;;4.80;57.30;;;;;;5044533;28;20098;-83
2021/03/02 07:00:52;;;;;;;15.73;4.32;;;4.70;48.20;;;;;;5047735;28;20060;-85
2021/03/02 07:03:31;;;;;;;19.65;6.13;;;4.90;47.70;;;;;;5049100;28;20029;-83
2021/03/02 07:06:07;;;;;;;26.83;11.55;;;4.90;46.60;;;;;;5067022;28;20036;-83
2021/03/02 07:08:33;;;;;;;24.35;7.60;;;;;;;;;;5065695;28;20051;-84
2021/03/02 07:11:00;;;;;;;44.83;13.52;;;5.20;45.50;;;;;;5068395;28;20177;-84
2021/03/02 07:13:30;;;;;;;28.10;8.07;;;5.20;45.60;;;;;;5067625;28;20070;-85
2021/03/02 07:15:56;;;;;;;35.00;9.32;;;;;;;;;;5066224;28;20028;-84
2021/03/02 07:18:24;;;;;;;19.13;7.65;;;;;;;;;;5067708;28;20041;-85
2021/03/02 07:20:50;;;;;;;34.95;11.38;;;;;;;;;;5062260;28;20029;-84
2021/03/02 07:23:23;;;;;;;13.73;8.25;;;;;;;;;;5063909;28;20036;-81
2021/03/02 07:25:50;;;;;;;27.83;8.82;;;;;;;;;;5065178;28;20657;-81
2021/03/02 07:28:20;;;;;;;13.13;6.43;;;6.20;46.10;;;;;;5065860;28;20098;-81
2021/03/02 07:30:47;;;;;;;12.38;7.45;;;6.40;45.20;;;;;;5072364;28;20035;-81
2021/03/02 07:33:13;;;;;;;20.67;7.72;;;;;;;;;;5065992;28;20029;-81
2021/03/02 07:35:39;;;;;;;19.35;7.72;;;;;;;;;;5066364;28;20567;-85
2021/03/02 07:38:19;;;;;;;17.33;5.63;;;6.80;51.40;;;;;;5048743;28;20060;-82
2021/03/02 07:40:55;;;;;;;19.38;8.48;;;;;;;;;;5035739;28;20056;-82
2021/03/02 07:43:32;;;;;;;28.58;10.02;;;;;;;;;;5057425;28;20040;-83
2021/03/02 07:45:59;;;;;;;13.38;6.10;;;7.70;41.20;;;;;;5062594;28;20032;-83
2021/03/02 07:48:30;;;;;;;24.02;9.10;;;7.80;41.60;;;;;;5048009;28;20404;-82
2021/03/02 07:51:17;;;;;;;36.03;10.63;;;4.30;39.60;;;;;;5046064;28;20024;-81
2021/03/02 07:53:44;;;;;;;25.55;10.73;;;7.60;42.60;;;;;;5063612;28;20120;-86
2021/03/02 07:56:16;;;;;;;34.72;11.75;;;;;;;;;;5064050;28;20079;-83
2021/03/02 07:58:43;;;;;;;28.65;11.90;;;;;;;;;;5047140;28;20049;-83
2021/03/02 08:01:27;;;;;;;18.48;10.07;;;8.50;41.20;;;;;;5051481;28;20029;-83
2021/03/02 08:04:16;;;;;;;34.47;8.90;;;9.00;40.30;;;;;;5055514;28;20482;-84
2021/03/02 08:06:42;;;;;;;26.42;8.98;;;;;;;;;;5045759;28;20031;-83
2021/03/02 08:09:28;;;;;;;18.88;9.02;;;8.90;40.70;;;;;;5059789;28;20020;-82
2021/03/02 08:11:55;;;;;;;17.77;9.30;;;8.50;63.50;;;;;;5047988;28;20500;-81
2021/03/02 08:14:21;;;;;;;17.38;8.25;;;;;;;;;;5063618;28;20060;-83
2021/03/02 08:16:53;;;;;;;31.08;8.95;;;9.10;41.70;;;;;;5063450;28;20123;-85
2021/03/02 08:19:41;;;;;;;18.05;9.48;;;9.70;41.40;;;;;;5065612;28;20091;-83
2021/03/02 08:22:20;;;;;;;18.92;7.75;;;;;;;;;;5059203;28;20420;-84
2021/03/02 08:24:55;;;;;;;22.70;8.07;;;9.90;39.80;;;;;;5055728;28;20028;-83
2021/03/02 08:27:45;;;;;;;10.82;4.43;;;10.50;43.10;;;;;;5065825;28;20028;-83
2021/03/02 08:30:11;;;;;;;14.23;6.53;;;;;;;;;;5059355;28;20040;-83
2021/03/02 08:32:38;;;;;;;14.85;5.70;;;10.50;38.40;;;;;;5064043;28;20026;-83
2021/03/02 08:35:10;;;;;;;9.50;5.50;;;11.10;57.90;;;;;;5060611;28;20037;-84
2021/03/02 08:37:50;;;;;;;10.20;5.70;;;11.50;37.00;;;;;;5062476;28;20090;-80
2021/03/02 08:40:18;;;;;;;16.50;6.22;;;11.90;36.60;;;;;;5063786;28;20028;-85
2021/03/02 08:43:06;;;;;;;12.63;6.28;;;12.30;36.50;;;;;;5064290;28;20063;-81
2021/03/02 08:45:39;;;;;;;25.45;6.65;;;12.60;35.40;;;;;;5058721;28;20723;-82
2021/03/02 08:48:19;;;;;;;14.40;6.63;;;12.50;37.10;;;;;;5047611;28;20028;-82
2021/03/02 08:50:46;;;;;;;16.30;6.22;;;11.80;37.30;;;;;;5064673;28;20059;-81
2021/03/02 08:53:28;;;;;;;14.40;5.83;;;12.00;37.10;;;;;;5041962;28;20021;-82
2021/03/02 08:55:54;;;;;;;14.75;5.75;;;;;;;;;;5063176;28;20293;-81
2021/03/02 08:58:27;;;;;;;17.02;6.55;;;12.20;36.90;;;;;;5054291;28;20177;-81
2021/03/02 09:01:00;;;;;;;12.05;5.68;;;12.10;37.60;;;;;;5064278;28;20029;-82
2021/03/02 09:03:26;;;;;;;19.17;5.70;;;;;;;;;;5059611;28;20020;-81
2021/03/02 09:06:10;;;;;;;7.82;5.25;;;12.80;37.50;;;;;;5064729;28;20024;-82
2021/03/02 09:08:52;;;;;;;15.27;5.22;;;13.30;37.50;;;;;;5065623;28;20032;-81
2021/03/02 09:11:27;;;;;;;18.48;4.97;;;13.30;37.30;;;;;;5042316;28;20037;-81
2021/03/02 09:13:55;;;;;;;8.10;5.00;;;13.40;36.50;;;;;;5059583;28;20028;-83
2021/03/02 09:16:20;;;;;;;;;;;13.40;36.30;;;;;;5044027;28;20119;-83
2021/03/02 09:19:04;;;;;;;18.58;6.20;;;14.00;35.10;;;;;;5064443;28;19916;-83
2021/03/02 09:21:31;;;;;;;20.08;6.68;;;;;;;;;;5064043;28;20663;-83
2021/03/02 09:23:58;;;;;;;16.35;5.85;;;14.20;34.90;;;;;;5063374;28;20025;-83
2021/03/02 09:26:25;;;;;;;17.98;6.63;;;14.60;35.90;;;;;;5063442;28;20094;-82
2021/03/02 09:29:00;;;;;;;12.80;5.63;;;14.80;35.90;;;;;;5065170;28;20562;-83
2021/03/02 09:31:27;;;;;;;13.57;5.63;;;14.90;35.60;;;;;;5060876;28;20565;-83
2021/03/02 09:33:54;;;;;;;14.27;6.95;;;15.10;35.20;;;;;;5064080;28;20063;-83
2021/03/02 09:36:28;;;;;;;12.38;6.00;;;15.20;35.50;;;;;;5060179;28;20047;-82
2021/03/02 09:38:54;;;;;;;12.25;4.72;;;15.70;36.10;;;;;;5065736;28;20041;-83
2021/03/02 09:41:50;;;;;;;18.17;6.77;;;15.90;35.30;;;;;;5044294;28;20033;-82
2021/03/02 09:44:24;;;;;;;18.50;4.72;;;16.20;34.10;;;;;;5041096;28;20278;-83
2021/03/02 09:46:51;;;;;;;8.05;5.43;;;16.30;35.70;;;;;;5063071;28;20486;-83
2021/03/02 09:49:34;;;;;;;7.45;3.97;;;16.60;47.90;;;;;;5037196;28;20179;-83
2021/03/02 09:52:01;;;;;;;8.50;3.95;;;16.60;32.00;;;;;;5064253;28;20064;-84
2021/03/02 09:54:27;;;;;;;8.07;3.75;;;;;;;;;;5062919;28;20020;-84
2021/03/02 09:57:11;;;;;;;18.42;4.22;;;17.00;32.20;;;;;;5060473;28;20089;-84
2021/03/02 09:59:39;;;;;;;9.65;4.43;;;17.40;32.20;;;;;;5065449;28;20029;-83
2021/03/02 10:02:05;;;;;;;19.98;4.20;;;;;;;;;;5063636;28;20036;-85
2021/03/02 10:04:31;;;;;;;8.07;4.07;;;;;;;;;;5062980;28;20598;-84
2021/03/02 10:07:17;;;;;;;7.25;3.30;;;18.40;31.70;;;;;;5063159;28;20044;-83
2021/03/02 10:09:48;;;;;;;21.08;4.57;;;18.70;29.20;;;;;;5048090;28;20040;-83
2021/03/02 10:12:15;;;;;;;8.57;2.70;;;19.30;27.70;;;;;;5068836;28;20024;-83
2021/03/02 10:14:44;;;;;;;7.13;3.47;;;;;;;;;;5067479;28;20020;-84
2021/03/02 10:17:12;;;;;;;10.35;3.10;;;19.80;27.30;;;;;;5065596;28;20036;-83
2021/03/02 10:19:38;;;;;;;;;;;20.10;27.40;;;;;;5068346;28;20035;-83
2021/03/02 10:22:11;;;;;;;8.15;3.38;;;19.30;28.50;;;;;;5066212;28;20472;-83
2021/03/02 10:24:41;;;;;;;9.65;3.80;;;19.80;29.20;;;;;;5061778;28;20028;-83
2021/03/02 10:27:15;;;;;;;6.70;2.60;;;19.70;27.10;;;;;;5061831;28;20028;-83
2021/03/02 10:29:43;;;;;;;10.60;3.58;;;19.60;28.10;;;;;;5067023;28;20408;-82
2021/03/02 10:32:09;;;;;;;5.05;2.58;;;;;;;;;;5061791;28;20052;-83
2021/03/02 10:34:37;;;;;;;12.25;3.78;;;;;;;;;;5066448;28;20477;-83
2021/03/02 10:37:04;;;;;;;5.38;2.30;;;19.80;28.50;;;;;;5044962;28;20048;-84
2021/03/02 10:39:31;;;;;;;8.60;2.55;;;;;;;;;;5055364;28;20025;-83
2021/03/02 10:41:57;;;;;;;5.35;2.40;;;20.10;26.90;;;;;;5065038;28;20029;-82
2021/03/02 10:44:24;;;;;;;8.30;2.83;;;;;;;;;;5065781;28;20039;-84
2021/03/02 10:46:50;;;;;;;8.60;2.47;;;;;;;;;;5065745;28;20059;-82
2021/03/02 10:49:16;;;;;;;3.05;2.05;;;;;;;;;;5067368;28;20084;-84
2021/03/02 10:51:42;;;;;;;8.85;2.22;;;;;;;;;;5065317;28;20415;-86
2021/03/02 10:54:10;;;;;;;4.35;2.67;;;20.50;27.20;;;;;;5063441;28;20031;-83
2021/03/02 10:56:36;;;;;;;4.85;2.17;;;;;;;;;;5063411;28;20025;-81
2021/03/02 10:59:03;;;;;;;11.40;2.35;;;;;;;;;;5066847;28;20040;-82
2021/03/02 11:01:29;;;;;;;5.28;2.55;;;;;;;;;;5046811;28;20439;-82
2021/03/02 11:03:55;;;;;;;8.77;2.30;;;;;;;;;;5066534;28;20680;-83
2021/03/02 11:06:24;;;;;;;3.55;2.25;;;20.60;27.90;;;;;;5064614;28;20016;-83
2021/03/02 11:08:51;;;;;;;6.63;2.72;;;;;;;;;;5069246;28;20030;-81
2021/03/02 11:11:17;;;;;;;8.23;3.72;;;;;;;;;;5067847;28;20103;-82
2021/03/02 11:13:43;;;;;;;16.63;2.38;;;;;;;;;;5047649;28;20050;-83
2021/03/02 11:16:10;;;;;;;9.50;3.60;;;;;;;;;;5064618;28;20032;-81
2021/03/02 11:18:36;;;;;;;8.80;2.73;;;;;;;;;;5067029;28;20460;-80
2021/03/02 11:21:02;;;;;;;12.32;2.20;;;;;;;;;;5064010;28;20369;-80
2021/03/02 11:23:28;;;;;;;6.55;2.33;;;;;;;;;;5060997;28;20033;-81
2021/03/02 11:25:54;;;;;;;10.57;2.15;;;;;;;;;;5065717;28;20385;-81
2021/03/02 11:28:20;;;;;;;9.60;2.45;;;;;;;;;;5066652;28;20036;-80
2021/03/02 11:30:46;;;;;;;9.40;2.45;;;;;;;;;;5066200;28;20029;-80
2021/03/02 11:33:13;;;;;;;2.83;1.40;;;;;;;;;;5046362;28;20029;-81
2021/03/02 11:35:40;;;;;;;3.22;1.40;;;;;;;;;;5064652;28;20172;-80
2021/03/02 11:38:06;;;;;;;3.58;2.03;;;;;;;;;;5064021;28;20028;-79
2021/03/02 11:40:32;;;;;;;4.53;1.80;;;;;;;;;;5066516;28;20039;-81
2021/03/02 11:42:58;;;;;;;7.45;2.15;;;;;;;;;;5065935;28;20119;-80
2021/03/02 11:45:30;;;;;;;8.75;1.60;;;20.50;25.40;;;;;;5065867;28;20116;-82
2021/03/02 11:47:56;;;;;;;3.17;1.45;;;;;;;;;;5048064;28;20568;-80
2021/03/02 11:50:22;;;;;;;2.72;1.88;;;;;;;;;;5065634;28;20131;-82
2021/03/02 11:52:48;;;;;;;5.43;1.60;;;;;;;;;;5064311;28;20055;-81
2021/03/02 11:55:15;;;;;;;2.20;1.60;;;20.10;25.20;;;;;;5064526;28;20428;-79
2021/03/02 11:57:41;;;;;;;5.63;1.80;;;;;;;;;;5060247;28;20047;-79
2021/03/02 12:00:10;;;;;;;7.35;1.98;;;20.10;25.20;;;;;;5066464;28;20123;-80
2021/03/02 12:02:36;;;;;;;6.22;2.10;;;;;;;;;;5066675;28;20037;-79
2021/03/02 12:05:02;;;;;;;3.78;1.98;;;;;;;;;;5047168;28;20028;-80
2021/03/02 12:07:28;;;;;;;4.22;2.60;;;;;;;;;;5064015;28;20040;-79
2021/03/02 12:09:54;;;;;;;7.65;1.63;;;;;;;;;;5065964;28;20040;-80
2021/03/02 12:12:20;;;;;;;2.85;1.90;;;;;;;;;;5060371;28;20116;-80
2021/03/02 12:14:46;;;;;;;2.58;1.58;;;;;;;;;;5046184;28;20031;-80
2021/03/02 12:17:12;;;;;;;5.90;2.10;;;;;;;;;;5061379;28;20047;-81
2021/03/02 12:19:39;;;;;;;5.47;2.63;;;;;;;;;;5065657;28;20081;-80
2021/03/02 12:22:05;;;;;;;2.85;1.25;;;;;;;;;;5064886;28;20024;-81
2021/03/02 12:24:31;;;;;;;7.30;1.52;;;;;;;;;;5063830;28;20525;-80
2021/03/02 12:26:57;;;;;;;5.28;1.90;;;;;;;;;;5061974;28;20025;-80
2021/03/02 12:29:23;;;;;;;3.30;1.55;;;;;;;;;;5046796;28;20141;-80
2021/03/02 12:31:49;;;;;;;4.13;1.70;;;;;;;;;;5046519;28;20389;-81
2021/03/02 12:34:15;;;;;;;6.03;2.35;;;;;;;;;;5062782;28;20032;-80
2021/03/02 12:36:41;;;;;;;6.65;2.38;;;;;;;;;;5039657;28;20035;-81
2021/03/02 12:39:08;;;;;;;4.97;2.08;;;18.30;26.60;;;;;;5065468;28;20044;-81
2021/03/02 12:41:34;;;;;;;6.80;3.00;;;;;;;;;;5066295;28;20465;-81
2021/03/02 12:44:00;;;;;;;5.32;2.15;;;;;;;;;;5063337;28;20128;-82
2021/03/02 12:46:26;;;;;;;5.78;1.50;;;;;;;;;;5043441;28;20486;-78
2021/03/02 12:48:52;;;;;;;4.72;2.83;;;;;;;;;;5063909;28;20056;-80
2021/03/02 12:51:19;;;;;;;4.82;2.65;;;;;;;;;;5061937;28;20043;-82
2021/03/02 12:53:46;;;;;;;5.33;1.77;;;17.80;27.80;;;;;;5062707;28;20540;-82
2021/03/02 12:56:12;;;;;;;6.70;2.35;;;;;;;;;;5057119;28;20060;-81
2021/03/02 12:58:38;;;;;;;9.57;2.60;;;;;;;;;;5064570;28;20040;-79
2021/03/02 13:01:04;;;;;;;2.88;1.60;;;;;;;;;;5069099;28;20032;-80
2021/03/02 13:03:31;;;;;;;3.65;2.13;;;;;;;;;;5063805;28;20054;-81
2021/03/02 13:06:02;;;;;;;5.03;2.25;;;18.00;27.60;;;;;;5064695;28;20469;-80
2021/03/02 13:08:29;;;;;;;7.65;2.63;;;;;;;;;;5061304;28;20175;-79
2021/03/02 13:10:58;;;;;;;7.65;2.70;;;17.90;26.20;;;;;;5042636;28;20055;-80
2021/03/02 13:13:24;;;;;;;5.95;2.20;;;17.70;25.70;;;;;;5062122;28;20040;-80
2021/03/02 13:15:51;;;;;;;1.90;1.52;;;;;;;;;;5061525;28;20028;-80
2021/03/02 13:18:17;;;;;;;4.50;2.40;;;;;;;;;;5056026;28;20409;-79
2021/03/02 13:20:43;;;;;;;5.50;2.30;;;;;;;;;;5046524;28;20021;-79
2021/03/02 13:23:09;;;;;;;9.77;3.20;;;;;;;;;;5058608;28;20490;-80
2021/03/02 13:25:35;;;;;;;3.45;1.67;;;;;;;;;;5058454;28;20029;-80
2021/03/02 13:28:01;;;;;;;5.03;2.05;;;;;;;;;;5056010;28;20032;-80
2021/03/02 13:30:27;;;;;;;11.25;2.55;;;;;;;;;;5062704;28;20028;-81
2021/03/02 13:33:10;;;;;;;6.63;4.03;;;17.30;28.40;;;;;;5063331;28;20033;-79
2021/03/02 13:35:36;;;;;;;10.32;2.78;;;;;;;;;;5062225;28;20071;-79
2021/03/02 13:38:05;;;;;;;9.05;3.80;;;17.20;27.60;;;;;;5055481;28;20067;-79
2021/03/02 13:40:31;;;;;;;8.40;3.47;;;17.30;27.00;;;;;;5057615;28;20021;-82
2021/03/02 13:42:57;;;;;;;12.05;5.53;;;;;;;;;;5058978;28;20056;-79
2021/03/02 13:45:25;;;;;;;15.48;5.50;;;17.40;24.70;;;;;;5061253;28;20051;-79
2021/03/02 13:47:53;;;;;;;23.80;6.97;;;17.30;25.50;;;;;;5067738;28;20032;-81
2021/03/02 13:50:19;;;;;;;32.13;9.38;;;;;;;;;;5067681;28;20056;-80
2021/03/02 13:52:45;;;;;;;15.00;5.80;;;;;;;;;;5048652;28;20020;-81
2021/03/02 13:55:12;;;;;;;8.20;4.75;;;17.20;27.20;;;;;;5067099;28;20505;-80
2021/03/02 13:57:39;;;;;;;18.70;8.57;;;17.00;25.10;;;;;;5064025;28;20114;-79
2021/03/02 14:00:12;;;;;;;8.48;3.55;;;17.00;26.90;;;;;;5069508;28;20028;-79